createdAt,value
2023-05-05T00:01:13.280Z,63.59
2023-05-05T00:03:41.851Z,61.69
2023-05-05T00:06:09.589Z,65.51
2023-05-05T00:08:37.330Z,67.36
2023-05-05T00:11:05.130Z,67.79
2023-05-05T00:13:32.880Z,70.76
2023-05-05T00:16:02.218Z,66.37
2023-05-05T00:18:30.205Z,68.07
2023-05-05T00:20:57.822Z,68.46
2023-05-05T00:23:26.042Z,64.54
2023-05-05T00:25:53.850Z,71.04
2023-05-05T00:28:22.024Z,65.38
2023-05-05T00:30:49.866Z,69.85
2023-05-05T00:33:18.944Z,69.11
2023-05-05T00:35:46.584Z,68.93
2023-05-05T00:38:14.252Z,70.55
2023-05-05T00:40:42.311Z,67.77
2023-05-05T00:43:09.974Z,70.99
2023-05-05T00:45:41.814Z,66.61
2023-05-05T00:48:10.482Z,68.31
2023-05-05T00:50:39.733Z,66.71
2023-05-05T00:53:08.023Z,68.41
2023-05-05T00:55:36.670Z,66.02
2023-05-05T00:58:04.589Z,68.36
2023-05-05T01:00:32.736Z,65.37
2023-05-05T01:03:00.884Z,71.40
2023-05-05T01:05:29.424Z,66.85
2023-05-05T01:08:07.194Z,66.31
2023-05-05T01:10:38.009Z,73.11
2023-05-05T01:13:14.024Z,70.08
2023-05-05T01:15:47.589Z,66.53
2023-05-05T01:18:19.520Z,64.75
2023-05-05T01:20:50.915Z,61.58
2023-05-05T01:23:34.067Z,67.88
2023-05-05T01:26:23.201Z,70.25
2023-05-05T01:29:08.682Z,65.09
2023-05-05T01:31:44.382Z,65.25
2023-05-05T01:34:15.507Z,65.15
2023-05-05T01:36:45.697Z,64.13
2023-05-05T01:39:16.704Z,66.64
2023-05-05T01:41:46.772Z,64.09
2023-05-05T01:44:16.278Z,65.87
2023-05-05T01:46:45.356Z,64.75
2023-05-05T01:49:13.623Z,62.85
2023-05-05T01:51:42.242Z,66.10
2023-05-05T01:54:19.883Z,65.93
2023-05-05T01:56:47.644Z,66.85
2023-05-05T01:59:16.961Z,71.46
2023-05-05T02:01:47.263Z,66.95
2023-05-05T02:04:15.457Z,65.52
2023-05-05T02:06:44.524Z,65.98
2023-05-05T02:09:14.114Z,64.28
2023-05-05T02:11:42.090Z,64.60
2023-05-05T02:14:10.462Z,65.71
2023-05-05T02:16:41.262Z,61.89
2023-05-05T02:19:10.662Z,66.16
2023-05-05T02:21:38.813Z,62.34
2023-05-05T02:24:07.401Z,60.41
2023-05-05T02:26:36.775Z,62.31
2023-05-05T02:29:07.513Z,62.74
2023-05-05T02:31:37.390Z,62.88
2023-05-05T02:34:06.422Z,65.82
2023-05-05T02:36:38.674Z,64.86
2023-05-05T02:39:12.650Z,66.35
2023-05-05T02:41:41.209Z,70.19
2023-05-05T02:44:11.153Z,64.91
2023-05-05T02:46:39.033Z,61.45
2023-05-05T02:49:06.766Z,62.71
2023-05-05T02:51:36.187Z,65.08
2023-05-05T02:54:04.081Z,61.46
2023-05-05T02:56:37.191Z,58.63
2023-05-05T02:59:11.038Z,64.46
2023-05-05T03:01:51.295Z,62.73
2023-05-05T03:04:26.386Z,64.82
2023-05-05T03:06:58.365Z,64.74
2023-05-05T03:09:29.874Z,62.86
2023-05-05T03:12:01.197Z,60.78
2023-05-05T03:14:32.089Z,65.22
2023-05-05T03:17:01.173Z,64.06
2023-05-05T03:19:29.776Z,63.08
2023-05-05T03:21:59.192Z,63.71
2023-05-05T03:24:26.960Z,62.12
2023-05-05T03:26:54.664Z,69.14
2023-05-05T03:29:22.523Z,64.06
2023-05-05T03:31:50.644Z,63.18
2023-05-05T03:34:18.363Z,62.85
2023-05-05T03:36:46.052Z,64.50
2023-05-05T03:39:15.234Z,70.39
2023-05-05T03:41:42.878Z,69.91
2023-05-05T03:46:52.411Z,72.04
2023-05-05T03:49:20.190Z,70.06
2023-05-05T03:51:48.216Z,64.45
2023-05-05T03:54:17.839Z,65.77
2023-05-05T03:56:45.517Z,66.85
2023-05-05T03:59:13.178Z,68.05
2023-05-05T04:01:40.830Z,64.93
2023-05-05T04:04:09.447Z,67.17
2023-05-05T04:06:37.183Z,72.02
2023-05-05T04:09:05.823Z,65.98
2023-05-05T04:11:35.012Z,72.73
2023-05-05T04:14:02.676Z,59.93
2023-05-05T04:16:31.091Z,68.96
2023-05-05T04:18:58.841Z,65.56
2023-05-05T04:21:26.507Z,64.92
2023-05-05T04:23:54.203Z,71.13
2023-05-05T04:26:22.165Z,73.90
2023-05-05T04:28:51.252Z,73.34
2023-05-05T04:31:19.292Z,70.47
2023-05-05T04:33:46.961Z,67.43
2023-05-05T04:36:14.644Z,66.13
2023-05-05T04:39:04.214Z,72.40
2023-05-05T04:41:31.926Z,66.53
2023-05-05T04:44:00.977Z,67.60
2023-05-05T04:46:28.732Z,64.70
2023-05-05T04:48:56.641Z,63.87
2023-05-05T04:51:24.272Z,67.59
2023-05-05T04:53:51.999Z,68.60
2023-05-05T04:56:19.757Z,67.18
2023-05-05T04:58:47.394Z,68.32
2023-05-05T05:01:16.449Z,59.97
2023-05-05T05:03:44.298Z,63.06
2023-05-05T05:06:12.031Z,61.04
2023-05-05T05:08:39.674Z,57.68
2023-05-05T05:11:07.530Z,57.40
2023-05-05T05:13:35.196Z,59.92
2023-05-05T05:16:02.989Z,59.52
2023-05-05T05:18:32.264Z,55.93
2023-05-05T05:21:00.047Z,60.46
2023-05-05T05:23:27.825Z,57.00
2023-05-05T05:25:55.885Z,56.94
2023-05-05T05:28:23.550Z,61.77
2023-05-05T05:30:52.103Z,63.90
2023-05-05T05:33:20.293Z,63.29
2023-05-05T05:35:49.374Z,59.53
2023-05-05T05:38:17.650Z,65.11
2023-05-05T05:41:07.549Z,59.72
2023-05-05T05:43:35.230Z,64.02
2023-05-05T05:46:03.033Z,60.85
2023-05-05T05:48:30.714Z,59.50
2023-05-05T05:50:59.765Z,59.48
2023-05-05T05:53:27.658Z,61.49
2023-05-05T05:55:55.587Z,60.03
2023-05-05T05:58:23.385Z,60.70
2023-05-05T06:00:51.142Z,61.30
2023-05-05T06:03:18.960Z,58.30
2023-05-05T06:05:46.996Z,57.88
2023-05-05T06:08:16.178Z,63.29
2023-05-05T06:10:48.189Z,58.53
2023-05-05T06:13:16.011Z,68.60
2023-05-05T06:15:43.788Z,69.52
2023-05-05T06:18:11.858Z,64.19
2023-05-05T06:20:39.986Z,61.52
2023-05-05T06:23:08.189Z,65.12
2023-05-05T06:25:37.662Z,63.84
2023-05-05T06:28:06.161Z,65.10
2023-05-05T06:30:34.188Z,61.77
2023-05-05T06:33:01.933Z,62.28
2023-05-05T06:35:30.440Z,64.63
2023-05-05T06:37:58.104Z,61.23
2023-05-05T06:40:25.932Z,59.43
2023-05-05T06:42:55.100Z,67.24
2023-05-05T06:45:22.901Z,61.06
2023-05-05T06:47:50.770Z,64.76
2023-05-05T06:50:18.535Z,66.16
2023-05-05T06:52:46.177Z,66.16
2023-05-05T06:55:13.819Z,64.47
2023-05-05T06:57:41.508Z,64.28
2023-05-05T07:00:12.886Z,64.52
2023-05-05T07:02:40.639Z,67.99
2023-05-05T07:05:08.753Z,63.75
2023-05-05T07:07:36.688Z,59.90
2023-05-05T07:10:04.511Z,61.56
2023-05-05T07:12:32.279Z,58.65
2023-05-05T07:15:00.769Z,58.90
2023-05-05T07:17:34.032Z,55.61
2023-05-05T07:20:01.955Z,56.01
2023-05-05T07:22:29.741Z,55.38
2023-05-05T07:24:57.386Z,57.65
2023-05-05T07:27:25.073Z,59.20
2023-05-05T07:29:54.928Z,54.48
2023-05-05T07:32:22.814Z,57.27
2023-05-05T07:35:18.569Z,59.27
2023-05-05T07:37:46.752Z,59.39
2023-05-05T07:43:23.602Z,56.62
2023-05-05T07:45:51.364Z,58.63
2023-05-05T07:48:19.085Z,55.98
2023-05-05T07:50:48.205Z,57.10
2023-05-05T07:53:16.191Z,55.39
2023-05-05T07:55:43.890Z,57.27
2023-05-05T07:58:12.003Z,58.44
2023-05-05T08:00:40.056Z,54.74
2023-05-05T08:03:11.333Z,53.20
2023-05-05T08:05:39.601Z,55.31
2023-05-05T08:08:08.804Z,57.19
2023-05-05T08:10:37.429Z,54.91
2023-05-05T08:13:05.193Z,56.42
2023-05-05T08:15:33.001Z,54.42
2023-05-05T08:18:00.747Z,55.00
2023-05-05T08:20:29.809Z,54.80
2023-05-05T08:22:57.614Z,55.79
2023-05-05T08:25:27.656Z,59.18
2023-05-05T08:27:55.654Z,56.83
2023-05-05T08:30:23.412Z,56.46
2023-05-05T08:32:51.373Z,56.79
2023-05-05T08:35:19.191Z,53.28
2023-05-05T08:37:46.954Z,55.70
2023-05-05T08:40:15.411Z,52.24
2023-05-05T08:42:45.780Z,54.13
2023-05-05T08:45:13.553Z,52.06
2023-05-05T08:47:43.294Z,51.28
2023-05-05T08:50:12.419Z,52.45
2023-05-05T08:52:42.145Z,52.37
2023-05-05T08:55:15.723Z,51.99
2023-05-05T08:57:50.068Z,48.04
2023-05-05T09:00:19.754Z,52.26
2023-05-05T09:02:48.427Z,53.09
2023-05-05T09:05:16.490Z,51.74
2023-05-05T09:07:44.950Z,53.22
2023-05-05T09:10:13.352Z,49.90
2023-05-05T09:12:41.664Z,51.55
2023-05-05T09:15:12.368Z,51.46
2023-05-05T09:17:40.120Z,51.60
2023-05-05T09:20:09.509Z,49.64
2023-05-05T09:22:38.381Z,52.54
2023-05-05T09:25:06.910Z,49.58
2023-05-05T09:27:38.776Z,52.94
2023-05-05T09:30:08.134Z,53.32
2023-05-05T09:32:48.872Z,53.17
2023-05-05T09:35:17.320Z,50.14
2023-05-05T09:37:45.225Z,55.04
2023-05-05T09:40:15.778Z,50.42
2023-05-05T09:42:44.362Z,50.17
2023-05-05T09:45:26.526Z,51.20
2023-05-05T09:50:44.563Z,49.80
2023-05-05T09:53:12.267Z,50.57
2023-05-05T09:55:41.046Z,51.44
2023-05-05T09:58:18.610Z,47.46
2023-05-05T10:00:46.635Z,52.18
2023-05-05T10:03:16.132Z,47.41
2023-05-05T10:06:13.643Z,48.24
2023-05-05T10:08:41.643Z,50.32
2023-05-05T10:11:09.450Z,50.93
2023-05-05T10:13:38.893Z,49.87
2023-05-05T10:16:10.052Z,47.90
2023-05-05T10:18:41.422Z,46.95
2023-05-05T10:21:17.580Z,46.10
2023-05-05T10:23:49.764Z,44.68
2023-05-05T10:26:18.602Z,46.59
2023-05-05T10:28:48.782Z,46.78
2023-05-05T10:31:26.038Z,43.95
2023-05-05T10:34:01.880Z,45.11
2023-05-05T10:36:31.706Z,47.47
2023-05-05T10:38:59.551Z,45.53
2023-05-05T10:41:27.711Z,46.19
2023-05-05T10:43:57.772Z,47.11
2023-05-05T10:46:26.263Z,45.22
2023-05-05T10:49:01.303Z,47.79
2023-05-05T10:51:39.928Z,48.00
2023-05-05T10:54:12.820Z,48.00
2023-05-05T10:56:41.343Z,48.84
2023-05-05T11:02:20.026Z,48.59
2023-05-05T11:05:08.506Z,46.23
2023-05-05T11:07:36.450Z,48.72
2023-05-05T11:10:05.783Z,46.63
2023-05-05T11:13:12.549Z,48.80
2023-05-05T11:15:40.448Z,47.84
2023-05-05T11:18:08.635Z,45.60
2023-05-05T11:21:07.299Z,42.64
2023-05-05T11:23:35.163Z,44.64
2023-05-05T11:26:02.907Z,44.37
2023-05-05T11:28:57.002Z,40.97
2023-05-05T11:31:24.760Z,43.71
2023-05-05T11:33:53.008Z,41.76
2023-05-05T11:36:22.757Z,39.49
2023-05-05T11:39:03.535Z,40.95
2023-05-05T11:41:52.067Z,43.84
2023-05-05T11:44:20.825Z,42.32
2023-05-05T11:47:26.808Z,45.12
2023-05-05T11:49:55.515Z,44.17
2023-05-05T11:52:45.530Z,43.82
2023-05-05T11:55:13.209Z,44.38
2023-05-05T11:57:41.200Z,43.31
2023-05-05T12:00:10.345Z,43.41
2023-05-05T12:02:38.333Z,42.66
2023-05-05T12:05:06.944Z,45.51
2023-05-05T12:07:36.011Z,41.51
2023-05-05T12:10:03.903Z,40.56
2023-05-05T12:12:36.086Z,42.96
2023-05-05T12:15:04.745Z,40.32
2023-05-05T12:17:45.014Z,41.64
2023-05-05T12:20:13.811Z,40.87
2023-05-05T12:22:43.804Z,42.43
2023-05-05T12:25:12.011Z,41.33
2023-05-05T12:27:39.887Z,40.30
2023-05-05T12:30:15.811Z,41.66
2023-05-05T12:32:44.391Z,38.47
2023-05-05T12:35:12.887Z,39.53
2023-05-05T12:37:40.758Z,43.46
2023-05-05T12:40:45.978Z,42.71
2023-05-05T12:43:35.044Z,41.45
2023-05-05T12:46:04.626Z,41.42
2023-05-05T12:48:32.560Z,41.20
2023-05-05T12:51:17.463Z,41.87
2023-05-05T12:53:45.750Z,42.44
2023-05-05T12:56:35.204Z,42.33
2023-05-05T12:59:11.779Z,41.04
2023-05-05T13:01:50.944Z,42.07
2023-05-05T13:04:19.157Z,43.29
2023-05-05T13:06:54.456Z,41.47
2023-05-05T13:09:26.899Z,44.19
2023-05-05T13:11:56.560Z,43.29
2023-05-05T13:14:47.966Z,44.47
2023-05-05T13:17:15.826Z,43.35
2023-05-05T13:19:46.267Z,44.30
2023-05-05T13:22:14.730Z,45.79
2023-05-05T13:24:51.713Z,47.89
2023-05-05T13:27:21.930Z,50.36
2023-05-05T13:29:49.839Z,49.25
2023-05-05T13:32:17.557Z,50.36
2023-05-05T13:34:45.370Z,50.81
2023-05-05T13:37:13.018Z,54.73
2023-05-05T13:39:40.711Z,56.35
2023-05-05T13:42:08.341Z,55.62
2023-05-05T13:44:37.410Z,57.23
2023-05-05T13:47:05.626Z,56.29
2023-05-05T13:49:33.457Z,58.33
2023-05-05T13:54:36.756Z,64.77
2023-05-05T13:57:04.808Z,74.54
2023-05-05T13:59:32.507Z,68.48
2023-05-05T14:02:02.080Z,66.55
2023-05-05T14:04:29.829Z,68.18
2023-05-05T14:06:58.180Z,70.31
2023-05-05T14:09:26.208Z,73.74
2023-05-05T14:11:53.893Z,89.94
2023-05-05T14:14:21.700Z,96.47
2023-05-05T14:16:50.355Z,100.00
2023-05-05T14:19:19.593Z,100.00
2023-05-05T14:21:47.289Z,100.00
2023-05-05T14:24:44.081Z,100.00
2023-05-05T14:27:11.738Z,100.00
2023-05-05T14:29:39.445Z,100.00
2023-05-05T14:32:07.127Z,97.36
2023-05-05T14:34:38.085Z,100.00
2023-05-05T14:37:05.749Z,100.00
2023-05-05T14:39:33.451Z,100.00
2023-05-05T14:42:01.951Z,100.00
2023-05-05T14:44:46.748Z,100.00
2023-05-05T14:47:14.435Z,100.00
2023-05-05T14:49:43.495Z,100.00
2023-05-05T14:52:11.255Z,100.00
2023-05-05T14:54:38.982Z,100.00
2023-05-05T14:57:07.652Z,100.00
2023-05-05T14:59:35.343Z,100.00
2023-05-05T15:02:03.054Z,100.00
2023-05-05T15:04:30.744Z,100.00
2023-05-05T15:06:59.840Z,100.00
2023-05-05T15:12:11.792Z,100.00
2023-05-05T15:14:39.943Z,100.00
2023-05-05T15:17:07.666Z,100.00
2023-05-05T15:19:35.377Z,100.00
2023-05-05T15:22:04.457Z,100.00
2023-05-05T15:24:32.129Z,100.00
2023-05-05T15:26:59.834Z,100.00
2023-05-05T15:29:27.591Z,100.00
2023-05-05T15:31:55.274Z,100.00
2023-05-05T15:34:22.977Z,100.00
2023-05-05T15:36:50.814Z,100.00
2023-05-05T15:39:20.013Z,100.00
2023-05-05T15:41:47.788Z,100.00
2023-05-05T15:44:16.017Z,100.00
2023-05-05T15:46:43.755Z,100.00
2023-05-05T15:49:11.504Z,100.00
2023-05-05T15:51:39.260Z,100.00
2023-05-05T15:54:07.773Z,100.00
2023-05-05T15:56:36.924Z,100.00
2023-05-05T15:59:04.731Z,100.00
2023-05-05T16:01:36.247Z,100.00
2023-05-05T16:04:04.647Z,100.00
2023-05-05T16:06:32.589Z,100.00
2023-05-05T16:09:00.263Z,98.39
2023-05-05T16:11:28.003Z,90.19
2023-05-05T16:13:57.070Z,92.16
2023-05-05T16:16:25.129Z,95.57
2023-05-05T16:18:52.800Z,96.31
2023-05-05T16:21:20.535Z,93.22
2023-05-05T16:23:48.247Z,93.88
2023-05-05T16:26:15.963Z,93.25
2023-05-05T16:29:10.007Z,92.71
2023-05-05T16:34:05.294Z,89.52
2023-05-05T16:36:33.005Z,75.65
2023-05-05T16:39:00.672Z,92.86
2023-05-05T16:41:28.530Z,95.68
2023-05-05T16:43:56.417Z,91.82
2023-05-05T16:46:25.550Z,92.66
2023-05-05T16:48:53.286Z,97.96
2023-05-05T16:51:20.955Z,94.19
2023-05-05T16:53:49.140Z,88.62
2023-05-05T16:56:16.894Z,97.35
2023-05-05T16:58:44.577Z,88.61
2023-05-05T17:01:12.345Z,91.88
2023-05-05T17:03:41.454Z,87.08
2023-05-05T17:06:09.658Z,89.65
2023-05-05T17:08:37.342Z,86.07
2023-05-05T17:11:05.024Z,89.98
2023-05-05T17:13:32.683Z,89.68
2023-05-05T17:16:00.502Z,80.73
2023-05-05T17:18:28.253Z,87.75
2023-05-05T17:20:57.376Z,86.99
2023-05-05T17:23:25.071Z,82.82
2023-05-05T17:25:52.732Z,85.65
2023-05-05T17:28:20.531Z,89.68
2023-05-05T17:30:48.217Z,83.86
2023-05-05T17:33:18.309Z,82.54
2023-05-05T17:35:46.036Z,80.75
2023-05-05T17:38:15.505Z,68.70
2023-05-05T17:40:43.283Z,72.80
2023-05-05T17:43:10.957Z,85.79
2023-05-05T17:45:38.720Z,80.86
2023-05-05T17:48:06.922Z,74.62
2023-05-05T17:50:34.948Z,78.47
2023-05-05T17:53:02.679Z,74.37
2023-05-05T17:55:31.756Z,75.63
2023-05-05T17:57:59.713Z,81.74
2023-05-05T18:00:27.492Z,81.30
2023-05-05T18:02:55.275Z,82.10
2023-05-05T18:05:23.058Z,77.58
2023-05-05T18:07:50.725Z,81.72
2023-05-05T18:10:18.576Z,85.28
2023-05-05T18:12:47.860Z,84.69
2023-05-05T18:20:46.171Z,88.02
2023-05-05T18:23:13.879Z,93.25
2023-05-05T18:25:42.418Z,95.02
2023-05-05T18:28:15.236Z,95.84
2023-05-05T18:30:42.927Z,93.44
2023-05-05T18:33:10.719Z,92.96
2023-05-05T18:35:38.667Z,84.18
2023-05-05T18:38:06.401Z,95.80
2023-05-05T18:40:34.331Z,91.00
2023-05-05T18:43:02.058Z,88.39
2023-05-05T18:45:31.259Z,89.73
2023-05-05T18:47:59.060Z,87.00
2023-05-05T18:50:26.895Z,82.56
2023-05-05T18:52:54.578Z,88.55
2023-05-05T18:55:22.696Z,92.77
2023-05-05T18:57:50.376Z,96.79
2023-05-05T19:00:19.925Z,92.35
2023-05-05T19:02:49.120Z,87.14
2023-05-05T19:05:16.922Z,79.34
2023-05-05T19:07:45.239Z,80.21
2023-05-05T19:10:12.983Z,80.35
2023-05-05T19:12:40.885Z,92.51
2023-05-05T19:15:09.858Z,83.86
2023-05-05T19:17:37.877Z,88.93
2023-05-05T19:20:08.785Z,90.23
2023-05-05T19:22:36.677Z,93.78
2023-05-05T19:25:04.744Z,93.92
2023-05-05T19:27:33.896Z,96.70
2023-05-05T19:30:01.719Z,85.88
2023-05-05T19:32:29.587Z,91.77
2023-05-05T19:37:46.762Z,84.83
2023-05-05T19:40:14.705Z,78.99
2023-05-05T19:42:42.566Z,76.90
2023-05-05T19:45:10.375Z,84.52
2023-05-05T19:47:38.088Z,93.83
2023-05-05T19:50:06.549Z,87.00
2023-05-05T19:52:36.543Z,85.88
2023-05-05T19:55:06.751Z,91.53
2023-05-05T19:57:34.523Z,87.64
2023-05-05T20:00:02.443Z,89.57
2023-05-05T20:02:30.167Z,82.40
2023-05-05T20:04:58.057Z,90.22
2023-05-05T20:07:25.975Z,98.14
2023-05-05T20:09:53.638Z,90.93
2023-05-05T20:12:23.612Z,88.07
2023-05-05T20:14:51.384Z,99.01
2023-05-05T20:17:20.227Z,96.78
2023-05-05T20:19:48.853Z,90.21
2023-05-05T20:22:16.585Z,84.97
2023-05-05T20:24:48.125Z,91.53
2023-05-05T20:27:15.894Z,93.18
2023-05-05T20:29:44.974Z,97.48
2023-05-05T20:32:12.848Z,91.22
2023-05-05T20:34:40.517Z,92.09
2023-05-05T20:37:08.225Z,87.99
2023-05-05T20:39:36.094Z,90.33
2023-05-05T20:42:03.820Z,92.53
2023-05-05T20:44:31.552Z,87.54
2023-05-05T20:47:00.679Z,94.06
2023-05-05T20:49:28.439Z,92.08
2023-05-05T20:51:56.102Z,97.54
2023-05-05T20:54:44.591Z,92.18
2023-05-05T20:57:12.415Z,94.48
2023-05-05T20:59:40.358Z,90.75
2023-05-05T21:02:09.556Z,92.65
2023-05-05T21:04:37.215Z,89.14
2023-05-05T21:07:04.880Z,89.51
2023-05-05T21:09:35.258Z,87.78
2023-05-05T21:12:03.313Z,83.52
2023-05-05T21:14:31.050Z,84.27
2023-05-05T21:16:58.853Z,88.27
2023-05-05T21:19:28.210Z,100.00
2023-05-05T21:21:59.012Z,100.00
2023-05-05T21:24:28.051Z,100.00
2023-05-05T21:26:56.373Z,93.73
2023-05-05T21:29:24.600Z,86.34
2023-05-05T21:31:52.323Z,88.11
2023-05-05T21:34:20.209Z,87.30
2023-05-05T21:36:49.269Z,83.54
2023-05-05T21:39:17.233Z,84.43
2023-05-05T21:41:44.890Z,87.27
2023-05-05T21:44:12.624Z,86.49
2023-05-05T21:46:40.532Z,81.99
2023-05-05T21:49:13.561Z,78.90
2023-05-05T21:51:41.465Z,85.74
2023-05-05T21:54:10.605Z,92.34
2023-05-05T21:56:38.698Z,88.00
2023-05-05T21:59:07.094Z,96.38
2023-05-05T22:01:34.833Z,86.49
2023-05-05T22:04:02.713Z,89.15
2023-05-05T22:06:30.688Z,83.95
2023-05-05T22:08:58.314Z,83.04
2023-05-05T22:11:28.710Z,85.70
2023-05-05T22:13:57.013Z,91.27
2023-05-05T22:16:24.672Z,90.49
2023-05-05T22:18:52.552Z,86.15
2023-05-05T22:21:20.189Z,88.07
2023-05-05T22:23:47.909Z,85.76
2023-05-05T22:26:15.571Z,83.19
2023-05-05T22:28:44.663Z,100.00
2023-05-05T22:31:12.348Z,100.00
2023-05-05T22:33:40.003Z,100.00
2023-05-05T22:36:10.105Z,100.00
2023-05-05T22:38:38.200Z,100.00
2023-05-05T22:41:07.276Z,100.00
2023-05-05T22:43:34.990Z,100.00
2023-05-05T22:46:04.067Z,100.00
2023-05-05T22:48:31.823Z,100.00
2023-05-05T22:50:59.945Z,100.00
2023-05-05T22:53:27.609Z,100.00
2023-05-05T22:55:55.272Z,100.00
2023-05-05T22:58:23.324Z,100.00
2023-05-05T23:00:50.989Z,100.00
2023-05-05T23:03:20.050Z,100.00
2023-05-05T23:05:47.713Z,100.00
2023-05-05T23:08:15.483Z,97.58
2023-05-05T23:10:43.300Z,90.92
2023-05-05T23:13:11.100Z,93.93
2023-05-05T23:15:39.009Z,92.91
2023-05-05T23:18:06.842Z,95.96
2023-05-05T23:20:36.037Z,96.51
2023-05-05T23:23:04.127Z,100.00
2023-05-05T23:25:31.840Z,100.00
2023-05-05T23:27:59.602Z,97.75
2023-05-05T23:30:27.282Z,95.48
2023-05-05T23:32:55.206Z,92.36
2023-05-05T23:35:22.851Z,93.31
2023-05-05T23:37:51.860Z,85.54
2023-05-05T23:40:20.125Z,90.16
2023-05-05T23:42:47.767Z,92.61
2023-05-05T23:45:18.061Z,88.39
2023-05-05T23:47:47.171Z,86.71
2023-05-05T23:50:14.854Z,80.99
2023-05-05T23:52:43.034Z,80.31
2023-05-05T23:55:12.263Z,78.62
2023-05-05T23:57:39.927Z,80.67
